Time;durP1;ratioP1;P1;durP2;ratioP2;P2;SDS_P1;SDS_P2;PMS_P1;PMS_P2;Temp;Humidity;BMP_temperature;BMP_pressure;BME280_temperature;BME280_humidity;BME280_pressure;Samples;Min_cycle;Max_cycle;Signal;HPM_P1;HPM_P2
2021/08/08 00:00:27;;;;;;;4.57;2.80;;;;;;;16.29;100.00;99555.25;4968703;28;20215;-77
2021/08/08 00:02:55;;;;;;;4.93;3.10;;;;;;;16.40;100.00;99557.25;4960126;29;20179;-76
2021/08/08 00:05:28;;;;;;;5.05;3.40;;;;;;;16.39;100.00;99563.88;4956445;28;20229;-76
2021/08/08 00:07:55;;;;;;;3.97;3.20;;;;;;;16.39;100.00;99557.56;4956579;29;20531;-76
2021/08/08 00:10:23;;;;;;;4.30;3.07;;;;;;;16.41;100.00;99558.03;4957597;28;20297;-76
2021/08/08 00:12:54;;;;;;;3.53;3.07;;;;;;;16.44;100.00;99557.38;4959520;28;20206;-75
2021/08/08 00:15:24;;;;;;;3.78;3.42;;;;;;;16.05;100.00;99562.53;4952107;28;20199;-75
2021/08/08 00:17:49;;;;;;;5.17;3.23;;;;;;;15.88;100.00;99573.63;4972333;28;20179;-76
2021/08/08 00:20:17;;;;;;;4.43;3.20;;;;;;;15.98;100.00;99567.72;4962381;28;20222;-75
2021/08/08 00:22:43;;;;;;;6.03;3.13;;;;;;;15.79;100.00;99589.28;4919092;28;20649;-75
2021/08/08 00:25:11;;;;;;;6.17;3.30;;;;;;;15.94;100.00;99588.72;4930854;29;20188;-75
2021/08/08 00:27:37;;;;;;;4.90;3.33;;;;;;;15.88;100.00;99588.09;4940355;29;20180;-75
2021/08/08 00:30:06;;;;;;;7.75;3.45;;;;;;;16.07;100.00;99588.44;4941991;28;20214;-75
2021/08/08 00:32:35;;;;;;;4.83;3.63;;;;;;;16.14;100.00;99594.19;4943274;29;20202;-75
2021/08/08 00:35:03;;;;;;;5.35;3.50;;;;;;;16.04;100.00;99585.56;4932612;29;20187;-75
2021/08/08 00:37:31;;;;;;;5.40;3.53;;;;;;;16.09;100.00;99591.66;4943386;29;20234;-75
2021/08/08 00:39:57;;;;;;;5.40;3.57;;;;;;;16.08;100.00;99581.84;4947990;29;20209;-74
2021/08/08 00:42:27;;;;;;;5.83;3.83;;;;;;;16.08;100.00;99576.38;4960062;28;20257;-74
2021/08/08 00:44:55;;;;;;;10.17;4.60;;;;;;;16.17;100.00;99593.50;4960434;28;20570;-75
2021/08/08 00:47:23;;;;;;;8.23;3.63;;;;;;;16.16;100.00;99602.88;4955547;28;20255;-75
2021/08/08 00:49:54;;;;;;;5.90;3.70;;;;;;;16.16;100.00;99594.66;4954450;28;20290;-75
2021/08/08 00:52:19;;;;;;;6.67;4.07;;;;;;;16.04;100.00;99602.78;4936958;29;20227;-74
2021/08/08 00:54:45;;;;;;;7.77;4.17;;;;;;;16.01;100.00;99603.47;4933700;29;20184;-74
2021/08/08 00:57:15;;;;;;;4.70;3.60;;;;;;;15.77;100.00;99609.91;4919612;29;20229;-75
2021/08/08 00:59:42;;;;;;;4.73;3.27;;;;;;;15.71;100.00;99606.56;4940495;29;20231;-74
2021/08/08 01:02:10;;;;;;;7.60;3.47;;;;;;;15.63;100.00;99615.63;4956377;28;20227;-76
2021/08/08 01:04:39;;;;;;;6.47;3.87;;;;;;;15.74;100.00;99613.34;4925933;29;20183;-74
2021/08/08 01:07:13;;;;;;;7.87;4.20;;;;;;;15.76;100.00;99605.59;4940639;28;20222;-76
2021/08/08 01:09:48;;;;;;;6.17;3.83;;;;;;;15.83;100.00;99612.94;4955365;28;20214;-74
2021/08/08 01:12:15;;;;;;;5.67;3.90;;;;;;;15.76;100.00;99613.81;4909657;29;20246;-75
2021/08/08 01:14:47;;;;;;;9.93;3.70;;;;;;;15.76;100.00;99613.81;4956821;29;20318;-76
2021/08/08 01:17:15;;;;;;;7.87;4.00;;;;;;;15.72;100.00;99618.34;4940049;29;20290;-74
2021/08/08 01:19:54;;;;;;;5.90;3.70;;;;;;;15.68;100.00;99617.41;4956990;28;20258;-75
2021/08/08 01:22:20;;;;;;;5.07;3.40;;;;;;;15.70;100.00;99615.13;4954559;29;20223;-76
2021/08/08 01:24:47;;;;;;;5.40;3.90;;;;;;;15.76;100.00;99619.28;4923179;29;20268;-75
2021/08/08 01:27:13;;;;;;;6.90;3.47;;;;;;;15.66;100.00;99611.41;4974582;28;20661;-77
2021/08/08 01:29:42;;;;;;;6.37;4.23;;;;;;;15.66;100.00;99614.16;4959895;28;20215;-77
2021/08/08 01:32:10;;;;;;;5.87;3.50;;;;;;;15.58;100.00;99628.69;4958920;28;20223;-76
2021/08/08 01:34:39;;;;;;;5.60;3.67;;;;;;;15.60;100.00;99626.44;4927080;29;20568;-75
2021/08/08 01:37:09;;;;;;;8.07;3.30;;;;;;;15.58;100.00;99624.03;4958573;28;20215;-75
2021/08/08 01:39:35;;;;;;;6.37;3.57;;;;;;;15.57;100.00;99618.91;4944370;29;20206;-76
2021/08/08 01:42:08;;;;;;;5.23;3.40;;;;;;;15.61;100.00;99622.59;4958473;28;20222;-77
2021/08/08 01:44:46;;;;;;;5.97;3.40;;;;;;;15.50;100.00;99624.09;4960036;29;20663;-75
2021/08/08 01:47:14;;;;;;;7.67;3.13;;;;;;;15.36;100.00;99636.38;4955489;28;20223;-74
2021/08/08 01:49:43;;;;;;;5.90;3.10;;;;;;;15.42;100.00;99627.66;4938406;29;20219;-74
2021/08/08 01:52:10;;;;;;;5.83;3.10;;;;;;;15.44;100.00;99633.63;4923728;29;20223;-76
2021/08/08 01:54:52;;;;;;;4.00;3.27;;;;;;;15.55;100.00;99634.84;4929852;29;20199;-73
2021/08/08 01:57:27;;;;;;;5.70;3.47;;;;;;;15.55;100.00;99629.38;4943093;28;20215;-76
2021/08/08 02:00:07;;;;;;;4.30;3.70;;;;;;;15.73;100.00;99617.97;4957420;28;20206;-73
2021/08/08 02:02:51;;;;;;;4.67;3.40;;;;;;;15.77;100.00;99620.88;4956094;28;20210;-74
2021/08/08 02:05:26;;;;;;;6.27;3.30;;;;;;;15.80;100.00;99632.78;4939703;28;20242;-74
2021/08/08 02:07:51;;;;;;;5.47;3.17;;;;;;;15.92;100.00;99629.31;4924471;28;20186;-78
2021/08/08 02:10:20;;;;;;;5.32;3.03;;;;;;;15.77;100.00;99630.69;4925972;28;20207;-77
2021/08/08 02:12:49;;;;;;;4.90;3.20;;;;;;;15.85;100.00;99621.63;4928228;29;20183;-76
2021/08/08 02:15:15;;;;;;;5.83;3.03;;;;;;;15.84;100.00;99633.72;4941951;28;20191;-76
2021/08/08 02:17:50;;;;;;;6.87;3.20;;;;;;;15.81;100.00;99634.38;4959666;28;20192;-77
2021/08/08 02:20:20;;;;;;;4.27;3.10;;;;;;;15.86;100.00;99631.47;4957762;28;20199;-77
2021/08/08 02:22:53;;;;;;;4.83;3.20;;;;;;;15.77;100.00;99634.56;4956898;29;20187;-76
2021/08/08 02:25:23;;;;;;;6.47;3.07;;;;;;;15.68;100.00;99640.09;4942876;28;20664;-77
2021/08/08 02:27:49;;;;;;;4.07;2.87;;;;;;;15.62;100.00;99635.13;4955801;28;20191;-77
2021/08/08 02:30:29;;;;;;;4.13;3.10;;;;;;;15.56;100.00;99631.75;4956724;28;20740;-76
2021/08/08 02:33:01;;;;;;;3.87;3.07;;;;;;;15.54;100.00;99639.50;4955569;28;20276;-78
2021/08/08 02:35:32;;;;;;;7.90;3.00;;;;;;;15.44;100.00;99653.56;4942728;28;20245;-77
2021/08/08 02:38:03;;;;;;;4.27;2.50;;;;;;;15.37;100.00;99660.69;4954116;28;20179;-77
2021/08/08 02:40:29;;;;;;;6.10;2.83;;;;;;;15.24;100.00;99648.00;4958013;28;20800;-75
2021/08/08 02:42:57;;;;;;;7.43;2.70;;;;;;;15.34;100.00;99655.84;4973956;28;20183;-77
2021/08/08 02:45:25;;;;;;;3.20;2.90;;;;;;;15.25;100.00;99657.81;4957139;28;20665;-76
2021/08/08 02:47:55;;;;;;;4.17;2.80;;;;;;;15.28;100.00;99657.16;4937887;28;20250;-77
2021/08/08 02:50:21;;;;;;;4.10;2.70;;;;;;;15.34;100.00;99661.31;4942786;28;20645;-78
2021/08/08 02:52:47;;;;;;;3.50;2.70;;;;;;;15.34;100.00;99660.53;4950948;28;20272;-77
2021/08/08 02:55:14;;;;;;;5.40;2.47;;;;;;;15.18;100.00;99665.75;4958901;28;20187;-76
2021/08/08 02:57:49;;;;;;;4.13;2.70;;;;;;;15.18;100.00;99657.53;4975767;28;20193;-78
2021/08/08 03:00:17;;;;;;;7.00;2.30;;;;;;;15.16;100.00;99664.44;4960356;28;20308;-76
2021/08/08 03:02:45;;;;;;;4.23;2.50;;;;;;;15.16;100.00;99665.25;4949491;29;20179;-77
2021/08/08 03:05:13;;;;;;;4.43;2.43;;;;;;;15.06;100.00;99664.75;4925074;28;20283;-76
2021/08/08 03:07:42;;;;;;;4.77;2.93;;;;;;;15.17;100.00;99660.59;4961398;29;20235;-77
2021/08/08 03:10:13;;;;;;;4.53;2.70;;;;;;;15.12;100.00;99666.19;4943813;28;20215;-76
2021/08/08 03:12:41;;;;;;;2.93;2.10;;;;;;;15.07;100.00;99669.09;4976348;28;20254;-75
2021/08/08 03:15:12;;;;;;;2.50;2.30;;;;;;;15.11;100.00;99667.34;4959344;28;20621;-78
2021/08/08 03:17:40;;;;;;;5.57;2.50;;;;;;;15.06;100.00;99664.75;4962083;28;20183;-76
2021/08/08 03:20:07;;;;;;;5.27;2.20;;;;;;;15.10;100.00;99666.50;4924866;28;20203;-76
2021/08/08 03:22:35;;;;;;;5.10;2.40;;;;;;;15.05;100.00;99663.16;4975472;28;20532;-75
2021/08/08 03:25:01;;;;;;;2.83;2.37;;;;;;;14.99;100.00;99681.66;4945330;29;20282;-76
2021/08/08 03:27:29;;;;;;;3.33;2.27;;;;;;;15.03;100.00;99673.59;4943811;29;20227;-75
2021/08/08 03:29:59;;;;;;;4.97;2.20;;;;;;;14.97;100.00;99682.31;4943054;29;20226;-76
2021/08/08 03:32:28;;;;;;;3.53;2.10;;;;;;;14.99;100.00;99685.53;4954116;28;20228;-74
2021/08/08 03:34:54;;;;;;;3.63;2.20;;;;;;;14.89;100.00;99686.69;4937792;29;20191;-77
2021/08/08 03:37:20;;;;;;;5.87;2.53;;;;;;;14.91;100.00;99694.53;4955829;29;20230;-76
2021/08/08 03:39:48;;;;;;;3.23;2.00;;;;;;;14.99;100.00;99687.13;4927138;29;20833;-75
2021/08/08 03:42:13;;;;;;;4.77;2.00;;;;;;;14.95;100.00;99692.78;4956963;28;20228;-76
2021/08/08 03:44:44;;;;;;;2.20;2.00;;;;;;;15.00;100.00;99691.47;4957980;28;20286;-75
2021/08/08 03:47:09;;;;;;;4.80;2.30;;;;;;;15.05;100.00;99698.69;4974185;28;20270;-75
2021/08/08 03:49:35;;;;;;;3.37;2.17;;;;;;;15.08;100.00;99700.81;4925730;29;20281;-75
2021/08/08 03:52:03;;;;;;;3.03;2.03;;;;;;;14.99;100.00;99707.41;4940372;29;20227;-75
2021/08/08 03:54:31;;;;;;;2.40;1.90;;;;;;;15.14;100.00;99697.59;4958823;28;20211;-75
2021/08/08 03:57:00;;;;;;;3.30;2.00;;;;;;;15.27;100.00;99699.31;4956159;28;20307;-74
2021/08/08 03:59:25;;;;;;;2.90;2.03;;;;;;;15.27;100.00;99699.31;4954985;29;20210;-75
2021/08/08 04:01:54;;;;;;;2.10;1.70;;;;;;;15.23;100.00;99703.84;4939803;28;20222;-78
2021/08/08 04:04:24;;;;;;;4.03;1.90;;;;;;;15.33;100.00;99695.31;4955169;28;20183;-76
2021/08/08 04:06:52;;;;;;;3.07;1.77;;;;;;;15.32;100.00;99701.91;4954141;28;20223;-75
2021/08/08 04:09:18;;;;;;;3.67;1.63;;;;;;;15.22;100.00;99699.53;4934903;29;20247;-74
2021/08/08 04:11:49;;;;;;;3.37;1.87;;;;;;;15.35;100.00;99709.47;4956537;28;20235;-75
2021/08/08 04:14:15;;;;;;;2.23;1.63;;;;;;;15.25;100.00;99703.53;4951702;28;20191;-74
2021/08/08 04:16:43;;;;;;;2.37;1.57;;;;;;;15.31;100.00;99711.25;4978694;28;20266;-74
2021/08/08 04:19:09;;;;;;;2.10;1.63;;;;;;;15.38;100.00;99711.53;4968047;28;20214;-75
2021/08/08 04:21:39;;;;;;;2.23;1.60;;;;;;;15.54;100.00;99710.69;4956546;29;20302;-77
2021/08/08 04:24:05;;;;;;;3.63;1.70;;;;;;;15.52;100.00;99712.16;4913984;29;20198;-76
2021/08/08 04:26:30;;;;;;;3.40;1.60;;;;;;;15.32;100.00;99712.06;4939798;28;20223;-73
2021/08/08 04:28:58;;;;;;;1.57;1.47;;;;;;;15.43;100.00;99725.06;4942120;29;20199;-76
2021/08/08 04:31:26;;;;;;;1.47;1.37;;;;;;;15.66;100.00;99718.19;4926721;28;20734;-76
2021/08/08 04:33:55;;;;;;;4.63;1.43;;;;;;;15.57;100.00;99731.16;4949435;28;20191;-75
2021/08/08 04:36:20;;;;;;;5.90;1.70;;;;;;;15.53;100.00;99730.16;4973346;28;20259;-76
2021/08/08 04:38:46;;;;;;;1.80;1.37;;;;;;;15.62;100.00;99733.69;4946103;28;20197;-74
2021/08/08 04:41:12;;;;;;;2.30;1.47;;;;;;;15.52;100.00;99734.03;4958826;29;20219;-75
2021/08/08 04:43:40;;;;;;;1.52;1.38;;;;;;;15.45;100.00;99733.72;4973565;28;20187;-76
2021/08/08 04:46:07;;;;;;;2.53;1.63;;;;;;;15.25;100.00;99728.94;4957285;29;20219;-75
2021/08/08 04:48:35;;;;;;;3.80;1.60;;;;;;;15.32;100.00;99734.72;4946227;28;20194;-78
2021/08/08 04:51:02;;;;;;;3.97;1.73;;;;;;;15.32;100.00;99728.47;4983886;28;20229;-77
2021/08/08 04:53:28;;;;;;;2.07;1.73;;;;;;;15.50;100.00;99741.78;4965816;29;20183;-76
2021/08/08 04:55:56;;;;;;;2.70;2.40;;;;;;;15.52;100.00;99725.84;4975461;28;20305;-76
2021/08/08 04:58:22;;;;;;;2.57;1.87;;;;;;;15.65;100.00;99727.56;4944293;29;20206;-77
2021/08/08 05:00:48;;;;;;;2.83;1.90;;;;;;;15.54;100.00;99727.09;4960979;29;20230;-77
2021/08/08 05:03:15;;;;;;;2.47;2.27;;;;;;;15.54;100.00;99726.31;4962977;29;20197;-77
2021/08/08 05:05:40;;;;;;;4.33;2.13;;;;;;;15.71;100.00;99721.56;4976297;28;20655;-76
2021/08/08 05:08:07;;;;;;;2.27;2.03;;;;;;;15.77;100.00;99720.28;4946884;29;20190;-76
2021/08/08 05:10:35;;;;;;;4.50;2.20;;;;;;;15.71;100.00;99721.56;4981329;28;20290;-76
2021/08/08 05:13:01;;;;;;;3.70;2.13;;;;;;;15.71;100.00;99723.50;4964187;29;20183;-77
2021/08/08 05:15:27;;;;;;;3.22;2.53;;;;;;;15.77;100.00;99708.50;4959310;28;20219;-75
2021/08/08 05:17:56;;;;;;;2.47;2.00;;;;;;;15.79;100.00;99718.81;4941697;29;20660;-77
2021/08/08 05:20:24;;;;;;;4.38;1.90;;;;;;;15.61;100.00;99712.94;4975775;28;20203;-76
2021/08/08 05:22:53;;;;;;;4.15;2.15;;;;;;;15.72;100.00;99720.44;4959051;29;20572;-74
2021/08/08 05:25:24;;;;;;;2.93;2.27;;;;;;;15.67;100.00;99719.81;4969311;28;20183;-75
2021/08/08 05:27:57;;;;;;;2.50;2.00;;;;;;;15.74;100.00;99731.06;4977620;28;20242;-75
2021/08/08 05:30:26;;;;;;;5.67;2.63;;;;;;;15.80;100.00;99730.56;4963748;28;20625;-76
2021/08/08 05:32:53;;;;;;;3.60;2.43;;;;;;;15.83;100.00;99730.69;4948088;28;20198;-75
2021/08/08 05:35:21;;;;;;;3.50;2.43;;;;;;;15.92;100.00;99734.22;4977417;28;20218;-76
2021/08/08 05:37:47;;;;;;;3.20;2.23;;;;;;;15.86;100.00;99734.75;4962074;29;20182;-75
2021/08/08 05:40:13;;;;;;;4.70;2.50;;;;;;;15.93;100.00;99741.31;4964482;28;20203;-76
2021/08/08 05:42:54;;;;;;;3.97;2.20;;;;;;;15.87;100.00;99748.06;4957544;28;20633;-74
2021/08/08 05:45:20;;;;;;;3.10;2.10;;;;;;;15.98;100.00;99748.53;4959107;28;20274;-76
2021/08/08 05:47:46;;;;;;;4.03;2.13;;;;;;;16.07;100.00;99752.81;4976554;28;20207;-76
2021/08/08 05:50:12;;;;;;;2.97;2.10;;;;;;;15.94;100.00;99742.09;4949095;28;20211;-77
2021/08/08 05:52:41;;;;;;;3.23;2.10;;;;;;;15.80;100.00;99747.81;4980403;28;20612;-78
2021/08/08 05:55:10;;;;;;;2.65;2.08;;;;;;;15.91;100.00;99751.75;4946141;28;20186;-77
2021/08/08 05:57:37;;;;;;;3.70;2.38;;;;;;;15.98;100.00;99754.81;4946077;29;20195;-79
2021/08/08 06:00:03;;;;;;;3.50;2.27;;;;;;;16.03;100.00;99756.56;4977947;28;20190;-78
2021/08/08 06:02:41;;;;;;;4.28;2.22;;;;;;;15.96;100.00;99768.03;4962125;29;20215;-77
2021/08/08 06:05:08;;;;;;;3.83;2.37;;;;;;;15.94;100.00;99753.84;4961780;28;20593;-78
2021/08/08 06:07:36;;;;;;;2.45;2.22;;;;;;;16.16;100.00;99766.50;4940862;29;20176;-77
2021/08/08 06:10:07;;;;;;;4.47;2.50;;;;;;;16.15;100.00;99771.16;4944027;28;20211;-78
2021/08/08 06:12:32;;;;;;;5.10;2.50;;;;;;;16.02;100.00;99772.19;4963967;28;20191;-76
2021/08/08 06:14:58;;;;;;;2.97;2.40;;;;;;;16.07;100.00;99776.69;4928728;29;20178;-77
2021/08/08 06:17:26;;;;;;;2.50;2.40;;;;;;;16.21;100.00;99773.44;4974037;28;20230;-77
2021/08/08 06:19:52;;;;;;;4.33;2.60;;;;;;;16.13;100.00;99767.94;4940567;29;20206;-79
2021/08/08 06:22:20;;;;;;;2.72;2.53;;;;;;;16.16;100.00;99775.50;4956157;28;20223;-79
2021/08/08 06:24:46;;;;;;;3.50;2.60;;;;;;;16.06;100.00;99784.13;4960822;28;20241;-79
2021/08/08 06:27:12;;;;;;;3.80;2.63;;;;;;;16.08;100.00;99784.59;4958150;28;20226;-78
2021/08/08 06:29:43;;;;;;;4.57;2.53;;;;;;;16.26;100.00;99799.81;4955973;29;20312;-78
2021/08/08 06:32:08;;;;;;;5.40;2.80;;;;;;;16.33;100.00;99772.72;4959560;28;20233;-77
2021/08/08 06:34:39;;;;;;;5.17;3.13;;;;;;;16.47;100.00;99795.22;4960600;29;20649;-76
2021/08/08 06:37:05;;;;;;;3.60;2.90;;;;;;;16.51;100.00;99785.19;4938959;28;20233;-76
2021/08/08 06:39:31;;;;;;;2.97;2.65;;;;;;;16.38;100.00;99791.72;4940807;28;20210;-78
2021/08/08 06:42:02;;;;;;;3.50;2.92;;;;;;;16.38;100.00;99797.19;4951875;28;20227;-78
2021/08/08 06:44:35;;;;;;;4.00;3.23;;;;;;;16.49;100.00;99803.91;4972629;28;20277;-77
2021/08/08 06:47:01;;;;;;;4.30;3.55;;;;;;;16.46;100.00;99801.81;4968614;28;20227;-77
2021/08/08 06:49:28;;;;;;;4.20;3.58;;;;;;;16.56;100.00;99804.22;4958185;29;20305;-78
2021/08/08 06:51:59;;;;;;;6.43;3.40;;;;;;;16.65;100.00;99809.28;4953896;28;20242;-78
2021/08/08 06:54:30;;;;;;;5.82;4.35;;;;;;;16.65;100.00;99808.50;4957390;28;20218;-76
2021/08/08 06:56:58;;;;;;;6.85;4.90;;;;;;;16.66;100.00;99810.88;4954792;29;20229;-77
2021/08/08 06:59:31;;;;;;;5.20;4.22;;;;;;;16.63;100.00;99811.56;4955241;29;20198;-77
2021/08/08 07:02:00;;;;;;;5.97;5.05;;;;;;;16.54;100.00;99818.25;4949569;28;20278;-77
2021/08/08 07:04:26;;;;;;;6.13;5.43;;;;;;;16.72;100.00;99816.97;4939404;29;20183;-74
2021/08/08 07:06:54;;;;;;;6.85;5.40;;;;;;;16.65;100.00;99825.75;4954616;28;20264;-74
2021/08/08 07:09:21;;;;;;;7.32;5.20;;;;;;;16.75;100.00;99833.56;4938167;29;20238;-75
2021/08/08 07:11:49;;;;;;;7.78;5.32;;;;;;;16.57;100.00;99844.97;4944540;28;20603;-74
2021/08/08 07:14:31;;;;;;;7.60;5.60;;;;;;;16.78;100.00;99838.41;4939589;29;20198;-74
2021/08/08 07:17:00;;;;;;;7.38;5.82;;;;;;;16.72;100.00;99841.66;4961763;28;20223;-75
2021/08/08 07:19:26;;;;;;;7.10;5.60;;;;;;;16.68;100.00;99836.06;4954033;29;20206;-78
2021/08/08 07:21:54;;;;;;;9.55;5.97;;;;;;;16.56;100.00;99844.19;4950855;29;20604;-74
2021/08/08 07:24:22;;;;;;;6.00;5.35;;;;;;;16.64;100.00;99851.56;4951340;29;20184;-77
2021/08/08 07:26:50;;;;;;;8.35;5.75;;;;;;;16.79;100.00;99858.41;4926938;28;20315;-74
2021/08/08 07:29:20;;;;;;;7.78;5.95;;;;;;;17.04;100.00;99850.00;4970640;28;20594;-77
2021/08/08 07:31:51;;;;;;;9.60;5.95;;;;;;;16.96;100.00;99859.13;4934635;29;20258;-77
2021/08/08 07:34:17;;;;;;;6.93;5.07;;;;;;;17.05;100.00;99870.81;4938537;29;20230;-74
2021/08/08 07:36:44;;;;;;;7.13;4.85;;;;;;;17.10;100.00;99870.63;4957510;28;20214;-77
2021/08/08 07:39:10;;;;;;;8.38;5.25;;;;;;;17.06;100.00;99880.66;4955134;29;20213;-75
2021/08/08 07:41:38;;;;;;;6.93;5.00;;;;;;;17.21;100.00;99885.59;4940430;28;20478;-74
2021/08/08 07:44:06;;;;;;;7.28;5.05;;;;;;;17.20;100.00;99898.53;4955106;29;20688;-75
2021/08/08 07:46:35;;;;;;;5.50;4.60;;;;;;;17.06;100.00;99889.69;4970569;28;20215;-78
2021/08/08 07:49:01;;;;;;;7.03;4.53;;;;;;;17.10;100.00;99895.31;4956550;28;20218;-78
2021/08/08 07:51:29;;;;;;;7.40;5.40;;;;;;;17.18;100.00;99891.75;4939159;29;20234;-74
2021/08/08 07:53:57;;;;;;;8.75;5.20;;;;;;;17.16;100.00;99908.56;4954716;29;20815;-76
2021/08/08 07:56:28;;;;;;;6.20;5.05;;;;;;;17.01;100.00;99913.78;4937056;29;20306;-75
2021/08/08 07:58:55;;;;;;;7.53;4.60;;;;;;;17.14;100.00;99910.00;4906147;29;20250;-72
2021/08/08 08:01:21;;;;;;;7.72;5.13;;;;;;;17.02;100.00;99929.13;4920936;29;20238;-72
2021/08/08 08:03:47;;;;;;;9.00;4.63;;;;;;;17.10;100.00;99925.53;4953169;28;20211;-73
2021/08/08 08:06:15;;;;;;;7.05;4.95;;;;;;;17.03;100.00;99936.22;4952552;28;20219;-75
2021/08/08 08:08:42;;;;;;;8.68;4.70;;;;;;;17.16;100.00;99941.50;4967342;28;20183;-73
2021/08/08 08:11:08;;;;;;;7.65;5.20;;;;;;;17.13;100.00;99941.34;4951802;29;20223;-75
2021/08/08 08:13:38;;;;;;;7.47;5.18;;;;;;;17.42;100.00;99939.41;4951229;28;20278;-75
2021/08/08 08:16:07;;;;;;;9.13;5.00;;;;;;;17.53;100.00;99940.59;4969490;28;20237;-79
2021/08/08 08:18:33;;;;;;;7.35;4.78;;;;;;;17.43;100.00;99936.28;4966309;28;20197;-75
2021/08/08 08:20:59;;;;;;;7.00;4.47;;;;;;;17.56;100.00;99946.22;4963781;28;20215;-75
2021/08/08 08:23:25;;;;;;;7.22;4.40;;;;;;;17.48;100.00;99941.59;4936812;28;20187;-76
2021/08/08 08:25:50;;;;;;;8.98;4.50;;;;;;;17.44;100.00;99948.09;4939322;28;20308;-73
2021/08/08 08:28:18;;;;;;;7.68;4.15;;;;;;;17.45;100.00;99944.19;4962698;28;20189;-74
2021/08/08 08:30:46;;;;;;;6.43;4.65;;;;;;;17.61;100.00;99947.97;4986709;28;20703;-73
2021/08/08 08:33:15;;;;;;;6.13;4.18;;;;;;;17.39;100.00;99946.34;4961824;28;20171;-73
2021/08/08 08:35:42;;;;;;;7.88;4.70;;;;;;;17.37;100.00;99967.84;4952378;28;20297;-73
2021/08/08 08:38:08;;;;;;;7.45;4.47;;;;;;;17.35;100.00;99972.88;4926319;28;20275;-73
2021/08/08 08:40:36;;;;;;;6.50;4.55;;;;;;;17.40;100.00;99967.19;4935435;28;20246;-72
2021/08/08 08:43:04;;;;;;;7.47;4.70;;;;;;;17.55;100.00;99966.59;4917375;29;20191;-72
2021/08/08 08:45:30;;;;;;;8.98;4.45;;;;;;;17.44;100.00;99975.56;4917713;28;20227;-74
2021/08/08 08:47:55;;;;;;;7.70;4.35;;;;;;;17.67;100.00;99972.13;4924306;29;20175;-73
2021/08/08 08:50:22;;;;;;;8.45;4.40;;;;;;;17.63;100.00;99978.66;4936165;28;20215;-73
2021/08/08 08:52:49;;;;;;;6.55;4.18;;;;;;;17.45;100.00;99977.16;4969204;28;20227;-74
2021/08/08 08:55:15;;;;;;;7.13;4.28;;;;;;;17.58;100.00;99982.41;4937549;28;20187;-73
2021/08/08 08:57:40;;;;;;;8.27;4.07;;;;;;;17.63;100.00;99984.94;4937262;28;20719;-73
2021/08/08 09:00:07;;;;;;;8.50;4.50;;;;;;;17.78;100.00;99987.09;4936884;29;20250;-73
2021/08/08 09:02:38;;;;;;;7.25;4.07;;;;;;;17.98;100.00;99981.56;4968892;28;20693;-74
2021/08/08 09:05:04;;;;;;;7.20;4.00;;;;;;;18.05;100.00;99997.53;4922314;29;20183;-73
2021/08/08 09:07:30;;;;;;;6.90;3.80;;;;;;;18.03;100.00;99991.56;4952232;28;20225;-75
2021/08/08 09:09:56;;;;;;;5.50;3.58;;;;;;;18.02;100.00;99995.44;4953437;28;20234;-72
2021/08/08 09:12:25;;;;;;;7.50;3.70;;;;;;;18.01;100.00;99997.41;4952613;28;20231;-73
2021/08/08 09:15:01;;;;;;;6.18;3.45;;;;;;;18.14;100.00;100002.63;4953023;29;20619;-75
2021/08/08 09:17:29;;;;;;;7.93;3.67;;;;;;;18.33;100.00;100002.97;4953609;28;20603;-72
2021/08/08 09:19:59;;;;;;;6.97;3.28;;;;;;;18.58;100.00;100008.19;4925400;29;20202;-76
2021/08/08 09:22:29;;;;;;;6.43;3.10;;;;;;;18.81;100.00;100006.63;4941802;28;20382;-72
2021/08/08 09:25:00;;;;;;;8.25;3.10;;;;;;;18.99;100.00;100003.38;4955672;29;20685;-74
2021/08/08 09:27:35;;;;;;;7.22;3.00;;;;;;;19.26;100.00;100010.94;4959103;28;20218;-78
2021/08/08 09:30:20;;;;;;;5.55;2.60;;;;;;;19.18;100.00;100011.88;4921629;28;20698;-73
2021/08/08 09:33:00;;;;;;;5.45;3.00;;;;;;;19.03;100.00;100007.03;4945841;28;20245;-71
2021/08/08 09:35:31;;;;;;;5.05;2.75;;;;;;;19.16;100.00;100022.41;4967773;28;20193;-73
2021/08/08 09:38:03;;;;;;;5.50;2.80;;;;;;;19.19;100.00;100018.97;4954705;28;20191;-74
2021/08/08 09:40:31;;;;;;;5.93;2.67;;;;;;;19.54;100.00;100012.66;4963143;28;20222;-73
2021/08/08 09:43:03;;;;;;;5.53;2.53;;;;;;;19.28;100.00;100027.91;4956537;28;20648;-74
2021/08/08 09:45:39;;;;;;;5.43;2.35;;;;;;;19.01;100.00;100020.34;4945011;28;20592;-75
2021/08/08 09:48:05;;;;;;;5.72;2.55;;;;;;;18.83;100.00;100031.03;4966081;28;20186;-75
2021/08/08 09:50:33;;;;;;;7.47;2.83;;;;;;;18.79;100.00;100033.69;4949627;29;20222;-66
2021/08/08 09:53:02;;;;;;;5.93;2.60;;;;;;;18.65;100.00;100037.91;4939435;29;20222;-77
2021/08/08 09:55:35;;;;;;;4.03;2.65;;;;;;;18.64;100.00;100033.53;4955491;28;20289;-77
2021/08/08 09:58:05;;;;;;;4.88;2.80;;;;;;;18.51;100.00;100042.88;4938339;29;20183;-75
2021/08/08 10:00:35;;;;;;;7.63;3.20;;;;;;;18.33;100.00;100048.91;4961325;28;20226;-78
2021/08/08 10:03:08;;;;;;;6.78;3.40;;;;;;;18.34;100.00;100056.81;4930022;29;20198;-76
2021/08/08 10:05:40;;;;;;;7.75;3.38;;;;;;;18.15;100.00;100058.47;4933449;28;20241;-75
2021/08/08 10:08:12;;;;;;;5.65;3.40;;;;;;;18.22;100.00;100070.53;4951440;28;20194;-78
2021/08/08 10:10:38;;;;;;;6.38;3.38;;;;;;;18.24;100.00;100073.75;4949683;28;20226;-71
2021/08/08 10:13:31;;;;;;;8.10;3.25;;;;;;;18.31;100.00;100067.69;4952973;28;20235;-76
2021/08/08 10:16:04;;;;;;;9.07;3.67;;;;;;;18.70;100.00;100068.75;4927242;29;20266;-76
2021/08/08 10:18:45;;;;;;;8.95;3.40;;;;;;;18.99;100.00;100069.44;4955239;29;20631;-75
2021/08/08 10:21:12;;;;;;;4.80;3.15;;;;;;;19.02;100.00;100074.25;4954919;28;20712;-72
2021/08/08 10:23:41;;;;;;;6.07;2.90;;;;;;;19.12;100.00;100068.31;4955534;28;20183;-73
2021/08/08 10:26:07;;;;;;;5.03;3.25;;;;;;;18.98;100.00;100073.31;4954370;28;20731;-77
2021/08/08 10:28:33;;;;;;;6.43;3.75;;;;;;;19.17;100.00;100070.84;4954722;29;20187;-74
2021/08/08 10:31:02;;;;;;;5.45;3.10;;;;;;;19.25;100.00;100067.19;4954187;28;20241;-76
2021/08/08 10:33:30;;;;;;;5.57;3.60;;;;;;;19.43;100.00;100072.13;4938938;29;20187;-76
2021/08/08 10:35:55;;;;;;;6.68;2.90;;;;;;;19.42;100.00;100066.97;4954335;29;20234;-74
2021/08/08 10:38:23;;;;;;;6.00;3.10;;;;;;;19.46;100.00;100073.38;4954537;29;20187;-76
2021/08/08 10:40:49;;;;;;;5.70;3.40;;;;;;;19.51;100.00;100082.22;4954284;28;20282;-76
2021/08/08 10:43:27;;;;;;;5.40;3.10;;;;;;;19.59;100.00;100067.50;4922504;29;20195;-78
2021/08/08 10:46:06;;;;;;;6.28;3.30;;;;;;;19.75;100.00;100083.00;4954559;28;20215;-76
2021/08/08 10:48:35;;;;;;;6.57;3.50;;;;;;;19.83;100.00;100084.88;4938554;29;20179;-75
2021/08/08 10:51:01;;;;;;;8.00;3.65;;;;;;;19.65;100.00;100092.91;4966664;28;20226;-73
2021/08/08 10:53:32;;;;;;;5.97;3.25;;;;;;;19.26;100.00;100082.56;4970612;28;20191;-76
2021/08/08 10:56:10;;;;;;;6.57;3.28;;;;;;;19.21;100.00;100099.31;4948720;28;20704;-74
2021/08/08 10:58:47;;;;;;;6.57;3.42;;;;;;;19.23;100.00;100088.75;4953825;29;20187;-77
2021/08/08 11:01:22;;;;;;;7.70;3.75;;;;;;;19.60;100.00;100102.22;4966351;28;20594;-76
2021/08/08 11:03:59;;;;;;;11.05;6.63;;;;;;;19.85;100.00;100103.81;4955239;28;20210;-74
2021/08/08 11:06:28;;;;;;;5.93;3.47;;;;;;;20.14;100.00;100102.38;4953805;28;20354;-73
2021/08/08 11:08:55;;;;;;;6.50;3.22;;;;;;;20.23;100.00;100099.50;4921998;29;20194;-77
2021/08/08 11:11:34;;;;;;;9.57;3.88;;;;;;;20.36;100.00;100109.34;4918654;29;20246;-76
2021/08/08 11:14:10;;;;;;;6.40;2.92;;;;;;;20.56;100.00;100107.22;4947183;29;20240;-75
2021/08/08 11:16:36;;;;;;;6.05;2.90;;;;;;;20.83;100.00;100097.34;4938096;29;20301;-74
2021/08/08 11:19:02;;;;;;;8.27;4.68;;;;;;;20.71;100.00;100116.72;4955068;29;20215;-73
2021/08/08 11:21:27;;;;;;;6.85;3.60;;;;;;;20.61;100.00;100119.97;4936134;28;20291;-75
2021/08/08 11:23:57;;;;;;;6.43;3.03;;;;;;;20.46;100.00;100129.78;4960351;28;20194;-72
2021/08/08 11:26:23;;;;;;;5.78;2.90;;;;;;;20.25;100.00;100127.53;4961069;28;20218;-76
2021/08/08 11:28:58;;;;;;;9.90;3.60;;;;;;;20.26;100.00;100142.97;4947524;28;20207;-72
2021/08/08 11:31:35;;;;;;;5.60;2.95;;;;;;;20.13;100.00;100138.63;4956468;28;20234;-78